Strona główna
METAR-TAF:

METAR-TAF

Lotnisko :

Frederick Municipal Airport

Frederick, Maryland, Stany Zjednoczone

Szerokość geograficzna: 39-25-03N, Długość geograficzna: 077-22-28W, wysokość: 92 m

Aktualna obserwacja pogody

Raport powstał 19 minut temu, godzina 09:25 UTC
Cisza
Temperatura 8°C
Wilgotność 81%
Ciśnienie 1011 hPa
Widzialność: 16.1 km
Zachmurzenie całkowite na wysokości 6000 ft

METAR: KFDK 250925Z AUTO 00000KT 10SM OVC060 08/05 A2984 RMK AO2

czas: 04:44 (09:44 UTC)


TAF: brakujący

Obserwacja i prognoza pogody dla ponad 4000 lotnisk (raport METAR i TAF).

Dostępne stacje oznaczono żółtymi i czerwonymi punktami na mapie.

Najedź kursorem aby zobaczyć nazwę stacji.

Kliknij aby zobaczyć obserwacje i prognozy pogody.

Aby zmienić mapę: kliknij na zielony przycisk z czarnym krzyżykiem, aby powiększyć; na zielony przycisk z myślnikiem, aby pomniejszyć; na zielone strzałki, aby przejść do map sąsiednich.


METAR-TAF: